Terminal Aerodrome Forecast
Issued by NWS

Home | Current Version | Previous Version | Graphics & Text | Print | Product List | Glossary On
Versions: 1 2 3 4 5 6 7 8 9 10 11 12 13 14 15 16
000
FTUS43 KICT 251440 AAA
TAFCNU
TAF AMD
KCNU 251440Z 2515/2612 17018G25KT P6SM SCT025 BKN250
     FM251700 18018G25KT P6SM BKN035
     FM260000 18015G23KT P6SM VCTS SCT035 BKN070CB
     FM260800 18011KT P6SM BKN008=

USA.gov is the U.S. government's official web portal to all federal, state and local government web resources and services.